sensor_id;sensor_type;location;lat;lon;timestamp;P1;durP1;ratioP1;P2;durP2;ratioP2
27744;SDS011;61387;48.112;8.616;2023-07-29T00:01:40;5.50;;;3.00;;
27744;SDS011;61387;48.112;8.616;2023-07-29T00:04:06;5.37;;;2.80;;
27744;SDS011;61387;48.112;8.616;2023-07-29T00:06:33;7.13;;;2.97;;
27744;SDS011;61387;48.112;8.616;2023-07-29T00:08:59;10.20;;;3.40;;
27744;SDS011;61387;48.112;8.616;2023-07-29T00:11:25;6.93;;;2.80;;
27744;SDS011;61387;48.112;8.616;2023-07-29T00:13:51;4.87;;;2.60;;
27744;SDS011;61387;48.112;8.616;2023-07-29T00:16:17;7.33;;;2.53;;
27744;SDS011;61387;48.112;8.616;2023-07-29T00:18:46;6.10;;;2.50;;
27744;SDS011;61387;48.112;8.616;2023-07-29T00:21:13;8.80;;;2.40;;
27744;SDS011;61387;48.112;8.616;2023-07-29T00:23:38;5.00;;;2.40;;
27744;SDS011;61387;48.112;8.616;2023-07-29T00:26:04;7.63;;;2.17;;
27744;SDS011;61387;48.112;8.616;2023-07-29T00:28:30;8.10;;;2.60;;
27744;SDS011;61387;48.112;8.616;2023-07-29T00:30:56;6.47;;;2.30;;
27744;SDS011;61387;48.112;8.616;2023-07-29T00:33:22;5.90;;;2.23;;
27744;SDS011;61387;48.112;8.616;2023-07-29T00:35:48;7.53;;;2.37;;
27744;SDS011;61387;48.112;8.616;2023-07-29T00:38:14;7.43;;;2.40;;
27744;SDS011;61387;48.112;8.616;2023-07-29T00:40:39;10.93;;;2.67;;
27744;SDS011;61387;48.112;8.616;2023-07-29T00:43:05;6.13;;;2.53;;
27744;SDS011;61387;48.112;8.616;2023-07-29T00:45:31;7.87;;;2.77;;
27744;SDS011;61387;48.112;8.616;2023-07-29T00:47:57;4.43;;;2.40;;
27744;SDS011;61387;48.112;8.616;2023-07-29T00:50:23;6.37;;;2.20;;
27744;SDS011;61387;48.112;8.616;2023-07-29T00:52:49;6.77;;;2.50;;
27744;SDS011;61387;48.112;8.616;2023-07-29T00:55:16;6.33;;;2.60;;
27744;SDS011;61387;48.112;8.616;2023-07-29T00:57:42;3.17;;;2.03;;
27744;SDS011;61387;48.112;8.616;2023-07-29T01:00:13;7.23;;;2.50;;
27744;SDS011;61387;48.112;8.616;2023-07-29T01:02:39;4.30;;;2.33;;
27744;SDS011;61387;48.112;8.616;2023-07-29T01:05:05;3.70;;;2.47;;
27744;SDS011;61387;48.112;8.616;2023-07-29T01:10:03;5.33;;;2.33;;
27744;SDS011;61387;48.112;8.616;2023-07-29T01:12:54;4.60;;;2.30;;
27744;SDS011;61387;48.112;8.616;2023-07-29T01:18:08;4.07;;;2.37;;
27744;SDS011;61387;48.112;8.616;2023-07-29T01:20:40;5.30;;;2.73;;
27744;SDS011;61387;48.112;8.616;2023-07-29T01:23:10;5.37;;;2.43;;
27744;SDS011;61387;48.112;8.616;2023-07-29T01:25:36;3.20;;;2.57;;
27744;SDS011;61387;48.112;8.616;2023-07-29T01:28:02;4.37;;;2.33;;
27744;SDS011;61387;48.112;8.616;2023-07-29T01:30:33;6.70;;;2.30;;
27744;SDS011;61387;48.112;8.616;2023-07-29T01:35:46;8.00;;;2.90;;
27744;SDS011;61387;48.112;8.616;2023-07-29T01:38:17;8.83;;;2.57;;
27744;SDS011;61387;48.112;8.616;2023-07-29T01:40:44;8.30;;;2.73;;
27744;SDS011;61387;48.112;8.616;2023-07-29T01:43:10;7.17;;;2.73;;
27744;SDS011;61387;48.112;8.616;2023-07-29T01:45:36;9.77;;;2.80;;
27744;SDS011;61387;48.112;8.616;2023-07-29T01:48:04;5.60;;;2.60;;
27744;SDS011;61387;48.112;8.616;2023-07-29T01:50:30;5.77;;;2.20;;
27744;SDS011;61387;48.112;8.616;2023-07-29T01:52:57;4.43;;;2.00;;
27744;SDS011;61387;48.112;8.616;2023-07-29T01:55:23;5.47;;;2.20;;
27744;SDS011;61387;48.112;8.616;2023-07-29T01:57:49;4.50;;;2.33;;
27744;SDS011;61387;48.112;8.616;2023-07-29T02:00:16;4.07;;;2.40;;
27744;SDS011;61387;48.112;8.616;2023-07-29T02:02:42;4.40;;;2.03;;
27744;SDS011;61387;48.112;8.616;2023-07-29T02:05:08;6.67;;;2.20;;
27744;SDS011;61387;48.112;8.616;2023-07-29T02:07:34;3.97;;;2.27;;
27744;SDS011;61387;48.112;8.616;2023-07-29T02:10:00;5.70;;;3.13;;
27744;SDS011;61387;48.112;8.616;2023-07-29T02:12:25;4.03;;;2.23;;
27744;SDS011;61387;48.112;8.616;2023-07-29T02:14:51;3.43;;;2.17;;
27744;SDS011;61387;48.112;8.616;2023-07-29T02:17:17;6.10;;;2.10;;
27744;SDS011;61387;48.112;8.616;2023-07-29T02:19:43;3.80;;;2.57;;
27744;SDS011;61387;48.112;8.616;2023-07-29T02:22:24;5.37;;;2.50;;
27744;SDS011;61387;48.112;8.616;2023-07-29T02:24:50;4.80;;;2.77;;
27744;SDS011;61387;48.112;8.616;2023-07-29T02:27:15;5.70;;;3.00;;
27744;SDS011;61387;48.112;8.616;2023-07-29T02:29:41;3.73;;;2.53;;
27744;SDS011;61387;48.112;8.616;2023-07-29T02:32:07;4.37;;;2.80;;
27744;SDS011;61387;48.112;8.616;2023-07-29T02:34:33;6.20;;;3.20;;
27744;SDS011;61387;48.112;8.616;2023-07-29T02:36:59;6.30;;;3.63;;
27744;SDS011;61387;48.112;8.616;2023-07-29T02:39:25;7.70;;;3.40;;
27744;SDS011;61387;48.112;8.616;2023-07-29T02:41:51;6.00;;;3.53;;
27744;SDS011;61387;48.112;8.616;2023-07-29T02:44:17;5.33;;;3.40;;
27744;SDS011;61387;48.112;8.616;2023-07-29T02:46:45;7.23;;;3.97;;
27744;SDS011;61387;48.112;8.616;2023-07-29T02:49:10;5.60;;;3.77;;
27744;SDS011;61387;48.112;8.616;2023-07-29T02:51:36;7.90;;;3.70;;
27744;SDS011;61387;48.112;8.616;2023-07-29T02:54:02;8.37;;;3.37;;
27744;SDS011;61387;48.112;8.616;2023-07-29T02:56:28;4.93;;;3.20;;
27744;SDS011;61387;48.112;8.616;2023-07-29T02:58:55;5.63;;;3.50;;
27744;SDS011;61387;48.112;8.616;2023-07-29T03:01:22;6.77;;;3.57;;
27744;SDS011;61387;48.112;8.616;2023-07-29T03:03:49;7.20;;;3.47;;
27744;SDS011;61387;48.112;8.616;2023-07-29T03:06:15;6.33;;;3.47;;
27744;SDS011;61387;48.112;8.616;2023-07-29T03:08:41;7.93;;;3.30;;
27744;SDS011;61387;48.112;8.616;2023-07-29T03:11:08;5.07;;;2.97;;
27744;SDS011;61387;48.112;8.616;2023-07-29T03:13:35;6.60;;;3.50;;
27744;SDS011;61387;48.112;8.616;2023-07-29T03:16:08;6.37;;;3.37;;
27744;SDS011;61387;48.112;8.616;2023-07-29T03:18:34;7.10;;;3.70;;
27744;SDS011;61387;48.112;8.616;2023-07-29T03:21:01;7.53;;;4.00;;
27744;SDS011;61387;48.112;8.616;2023-07-29T03:23:27;7.10;;;4.23;;
27744;SDS011;61387;48.112;8.616;2023-07-29T03:25:57;7.53;;;4.03;;
27744;SDS011;61387;48.112;8.616;2023-07-29T03:28:24;6.23;;;3.80;;
27744;SDS011;61387;48.112;8.616;2023-07-29T03:30:52;5.27;;;3.63;;
27744;SDS011;61387;48.112;8.616;2023-07-29T03:33:18;6.70;;;3.90;;
27744;SDS011;61387;48.112;8.616;2023-07-29T03:35:44;5.10;;;3.63;;
27744;SDS011;61387;48.112;8.616;2023-07-29T03:38:10;8.67;;;3.97;;
27744;SDS011;61387;48.112;8.616;2023-07-29T03:40:37;9.13;;;3.90;;
27744;SDS011;61387;48.112;8.616;2023-07-29T03:43:03;5.97;;;4.00;;
27744;SDS011;61387;48.112;8.616;2023-07-29T03:45:29;7.50;;;3.93;;
27744;SDS011;61387;48.112;8.616;2023-07-29T03:47:55;6.90;;;4.07;;
27744;SDS011;61387;48.112;8.616;2023-07-29T03:50:21;6.40;;;3.87;;
27744;SDS011;61387;48.112;8.616;2023-07-29T03:52:47;7.17;;;3.90;;
27744;SDS011;61387;48.112;8.616;2023-07-29T03:55:13;7.47;;;3.73;;
27744;SDS011;61387;48.112;8.616;2023-07-29T03:57:39;5.90;;;3.57;;
27744;SDS011;61387;48.112;8.616;2023-07-29T04:00:05;7.43;;;3.40;;
27744;SDS011;61387;48.112;8.616;2023-07-29T04:02:31;5.90;;;3.50;;
27744;SDS011;61387;48.112;8.616;2023-07-29T04:04:56;7.00;;;3.60;;
27744;SDS011;61387;48.112;8.616;2023-07-29T04:07:23;7.03;;;3.67;;
27744;SDS011;61387;48.112;8.616;2023-07-29T04:09:48;7.93;;;3.83;;
27744;SDS011;61387;48.112;8.616;2023-07-29T04:12:14;6.53;;;3.93;;
27744;SDS011;61387;48.112;8.616;2023-07-29T04:14:40;6.17;;;3.80;;
27744;SDS011;61387;48.112;8.616;2023-07-29T04:17:06;5.70;;;3.63;;
27744;SDS011;61387;48.112;8.616;2023-07-29T04:19:32;7.07;;;3.63;;
27744;SDS011;61387;48.112;8.616;2023-07-29T04:21:58;7.13;;;4.00;;
27744;SDS011;61387;48.112;8.616;2023-07-29T04:24:24;9.87;;;4.40;;
27744;SDS011;61387;48.112;8.616;2023-07-29T04:26:50;13.90;;;6.27;;
27744;SDS011;61387;48.112;8.616;2023-07-29T04:29:16;7.73;;;4.10;;
27744;SDS011;61387;48.112;8.616;2023-07-29T04:31:41;6.33;;;4.40;;
27744;SDS011;61387;48.112;8.616;2023-07-29T04:34:07;8.27;;;4.23;;
27744;SDS011;61387;48.112;8.616;2023-07-29T04:36:33;7.33;;;4.60;;
27744;SDS011;61387;48.112;8.616;2023-07-29T04:39:00;10.20;;;3.83;;
27744;SDS011;61387;48.112;8.616;2023-07-29T04:41:26;7.87;;;4.53;;
27744;SDS011;61387;48.112;8.616;2023-07-29T04:43:51;7.57;;;4.07;;
27744;SDS011;61387;48.112;8.616;2023-07-29T04:46:17;7.77;;;3.93;;
27744;SDS011;61387;48.112;8.616;2023-07-29T04:48:43;9.20;;;4.00;;
27744;SDS011;61387;48.112;8.616;2023-07-29T04:51:08;6.77;;;4.00;;
27744;SDS011;61387;48.112;8.616;2023-07-29T04:53:34;6.50;;;4.10;;
27744;SDS011;61387;48.112;8.616;2023-07-29T04:56:02;9.57;;;3.70;;
27744;SDS011;61387;48.112;8.616;2023-07-29T04:58:27;5.33;;;3.73;;
27744;SDS011;61387;48.112;8.616;2023-07-29T05:00:54;6.03;;;3.90;;
27744;SDS011;61387;48.112;8.616;2023-07-29T05:03:21;7.53;;;4.23;;
27744;SDS011;61387;48.112;8.616;2023-07-29T05:05:52;5.20;;;3.70;;
27744;SDS011;61387;48.112;8.616;2023-07-29T05:08:19;6.73;;;3.63;;
27744;SDS011;61387;48.112;8.616;2023-07-29T05:10:48;7.70;;;3.50;;
27744;SDS011;61387;48.112;8.616;2023-07-29T05:13:14;7.67;;;3.50;;
27744;SDS011;61387;48.112;8.616;2023-07-29T05:15:40;8.97;;;3.80;;
27744;SDS011;61387;48.112;8.616;2023-07-29T05:18:06;5.23;;;3.20;;
27744;SDS011;61387;48.112;8.616;2023-07-29T05:20:32;7.80;;;4.40;;
27744;SDS011;61387;48.112;8.616;2023-07-29T05:22:57;5.50;;;3.57;;
27744;SDS011;61387;48.112;8.616;2023-07-29T05:25:23;7.20;;;4.40;;
27744;SDS011;61387;48.112;8.616;2023-07-29T05:27:49;6.43;;;4.10;;
27744;SDS011;61387;48.112;8.616;2023-07-29T05:30:15;6.27;;;3.70;;
27744;SDS011;61387;48.112;8.616;2023-07-29T05:32:41;8.27;;;4.37;;
27744;SDS011;61387;48.112;8.616;2023-07-29T05:35:07;5.90;;;3.50;;
27744;SDS011;61387;48.112;8.616;2023-07-29T05:37:33;5.97;;;3.67;;
27744;SDS011;61387;48.112;8.616;2023-07-29T05:39:58;6.63;;;3.70;;
27744;SDS011;61387;48.112;8.616;2023-07-29T05:42:24;4.67;;;3.37;;
27744;SDS011;61387;48.112;8.616;2023-07-29T05:44:50;5.63;;;3.33;;
27744;SDS011;61387;48.112;8.616;2023-07-29T05:47:16;8.13;;;4.10;;
27744;SDS011;61387;48.112;8.616;2023-07-29T05:49:42;12.17;;;4.97;;
27744;SDS011;61387;48.112;8.616;2023-07-29T05:52:08;6.83;;;3.73;;
27744;SDS011;61387;48.112;8.616;2023-07-29T05:54:34;6.10;;;4.00;;
27744;SDS011;61387;48.112;8.616;2023-07-29T05:56:59;6.00;;;3.57;;
27744;SDS011;61387;48.112;8.616;2023-07-29T05:59:25;6.13;;;3.73;;
27744;SDS011;61387;48.112;8.616;2023-07-29T06:01:54;5.50;;;3.40;;
27744;SDS011;61387;48.112;8.616;2023-07-29T06:04:20;6.23;;;3.30;;
27744;SDS011;61387;48.112;8.616;2023-07-29T06:06:46;5.17;;;3.70;;
27744;SDS011;61387;48.112;8.616;2023-07-29T06:09:12;5.10;;;3.05;;
27744;SDS011;61387;48.112;8.616;2023-07-29T06:11:37;4.33;;;3.10;;
27744;SDS011;61387;48.112;8.616;2023-07-29T06:14:03;5.15;;;3.30;;
27744;SDS011;61387;48.112;8.616;2023-07-29T06:16:29;6.90;;;3.37;;
27744;SDS011;61387;48.112;8.616;2023-07-29T06:18:54;6.25;;;3.05;;
27744;SDS011;61387;48.112;8.616;2023-07-29T06:21:20;5.83;;;2.97;;
27744;SDS011;61387;48.112;8.616;2023-07-29T06:23:46;5.53;;;3.10;;
27744;SDS011;61387;48.112;8.616;2023-07-29T06:26:12;5.37;;;3.50;;
27744;SDS011;61387;48.112;8.616;2023-07-29T06:28:38;5.63;;;3.33;;
27744;SDS011;61387;48.112;8.616;2023-07-29T06:31:04;6.82;;;3.60;;
27744;SDS011;61387;48.112;8.616;2023-07-29T06:33:30;4.93;;;3.35;;
27744;SDS011;61387;48.112;8.616;2023-07-29T06:35:56;6.37;;;3.93;;
27744;SDS011;61387;48.112;8.616;2023-07-29T06:38:22;5.20;;;3.37;;
27744;SDS011;61387;48.112;8.616;2023-07-29T06:40:48;5.73;;;3.50;;
27744;SDS011;61387;48.112;8.616;2023-07-29T06:43:13;6.10;;;3.62;;
27744;SDS011;61387;48.112;8.616;2023-07-29T06:45:39;5.17;;;3.60;;
27744;SDS011;61387;48.112;8.616;2023-07-29T06:48:05;6.57;;;3.60;;
27744;SDS011;61387;48.112;8.616;2023-07-29T06:50:30;5.83;;;3.40;;
27744;SDS011;61387;48.112;8.616;2023-07-29T06:52:59;5.45;;;3.37;;
27744;SDS011;61387;48.112;8.616;2023-07-29T06:55:25;5.05;;;3.50;;
27744;SDS011;61387;48.112;8.616;2023-07-29T06:57:57;5.10;;;3.10;;
27744;SDS011;61387;48.112;8.616;2023-07-29T07:00:23;6.35;;;3.70;;
27744;SDS011;61387;48.112;8.616;2023-07-29T07:02:49;4.82;;;3.40;;
27744;SDS011;61387;48.112;8.616;2023-07-29T07:05:24;6.85;;;3.80;;
27744;SDS011;61387;48.112;8.616;2023-07-29T07:07:50;5.53;;;3.37;;
27744;SDS011;61387;48.112;8.616;2023-07-29T07:10:16;5.13;;;3.40;;
27744;SDS011;61387;48.112;8.616;2023-07-29T07:12:41;6.57;;;3.20;;
27744;SDS011;61387;48.112;8.616;2023-07-29T07:15:07;5.43;;;3.10;;
27744;SDS011;61387;48.112;8.616;2023-07-29T07:17:33;4.75;;;3.25;;
27744;SDS011;61387;48.112;8.616;2023-07-29T07:19:59;6.20;;;3.10;;
27744;SDS011;61387;48.112;8.616;2023-07-29T07:22:25;6.13;;;3.00;;
27744;SDS011;61387;48.112;8.616;2023-07-29T07:24:50;6.47;;;4.37;;
27744;SDS011;61387;48.112;8.616;2023-07-29T07:27:16;5.60;;;3.35;;
27744;SDS011;61387;48.112;8.616;2023-07-29T07:29:42;10.45;;;7.05;;
27744;SDS011;61387;48.112;8.616;2023-07-29T07:32:08;12.17;;;4.10;;
27744;SDS011;61387;48.112;8.616;2023-07-29T07:34:34;9.57;;;4.57;;
27744;SDS011;61387;48.112;8.616;2023-07-29T07:37:00;35.08;;;24.10;;
27744;SDS011;61387;48.112;8.616;2023-07-29T07:39:26;16.65;;;7.15;;
27744;SDS011;61387;48.112;8.616;2023-07-29T07:41:51;11.70;;;4.73;;
27744;SDS011;61387;48.112;8.616;2023-07-29T07:44:17;8.55;;;4.05;;
27744;SDS011;61387;48.112;8.616;2023-07-29T07:46:44;9.35;;;3.80;;
27744;SDS011;61387;48.112;8.616;2023-07-29T07:49:10;16.17;;;11.43;;
27744;SDS011;61387;48.112;8.616;2023-07-29T07:51:37;10.68;;;8.15;;
27744;SDS011;61387;48.112;8.616;2023-07-29T07:54:03;7.13;;;4.13;;
27744;SDS011;61387;48.112;8.616;2023-07-29T07:56:32;8.70;;;3.67;;
27744;SDS011;61387;48.112;8.616;2023-07-29T07:58:57;7.43;;;3.87;;
27744;SDS011;61387;48.112;8.616;2023-07-29T08:01:23;10.07;;;3.83;;
27744;SDS011;61387;48.112;8.616;2023-07-29T08:03:49;8.30;;;4.47;;
27744;SDS011;61387;48.112;8.616;2023-07-29T08:06:14;13.83;;;6.90;;
27744;SDS011;61387;48.112;8.616;2023-07-29T08:08:40;8.77;;;3.90;;
27744;SDS011;61387;48.112;8.616;2023-07-29T08:11:06;5.07;;;2.90;;
27744;SDS011;61387;48.112;8.616;2023-07-29T08:13:31;5.45;;;2.85;;
27744;SDS011;61387;48.112;8.616;2023-07-29T08:15:57;6.95;;;3.37;;
27744;SDS011;61387;48.112;8.616;2023-07-29T08:18:23;6.25;;;3.10;;
27744;SDS011;61387;48.112;8.616;2023-07-29T08:20:55;7.07;;;3.50;;
27744;SDS011;61387;48.112;8.616;2023-07-29T08:23:23;6.53;;;3.17;;
27744;SDS011;61387;48.112;8.616;2023-07-29T08:26:00;5.12;;;2.80;;
27744;SDS011;61387;48.112;8.616;2023-07-29T08:28:27;6.10;;;3.60;;
27744;SDS011;61387;48.112;8.616;2023-07-29T08:30:54;6.05;;;2.80;;
27744;SDS011;61387;48.112;8.616;2023-07-29T08:33:20;5.47;;;2.63;;
27744;SDS011;61387;48.112;8.616;2023-07-29T08:35:45;4.80;;;2.80;;
27744;SDS011;61387;48.112;8.616;2023-07-29T08:38:11;3.45;;;2.25;;
27744;SDS011;61387;48.112;8.616;2023-07-29T08:40:42;4.30;;;2.50;;
27744;SDS011;61387;48.112;8.616;2023-07-29T08:43:10;4.07;;;2.58;;
27744;SDS011;61387;48.112;8.616;2023-07-29T08:45:40;3.50;;;2.47;;
27744;SDS011;61387;48.112;8.616;2023-07-29T08:48:10;4.55;;;2.40;;
27744;SDS011;61387;48.112;8.616;2023-07-29T08:50:37;4.12;;;2.60;;
27744;SDS011;61387;48.112;8.616;2023-07-29T08:53:06;4.53;;;2.80;;
27744;SDS011;61387;48.112;8.616;2023-07-29T08:55:31;4.00;;;2.95;;
27744;SDS011;61387;48.112;8.616;2023-07-29T08:57:58;5.57;;;3.67;;
27744;SDS011;61387;48.112;8.616;2023-07-29T09:00:28;6.22;;;3.65;;
27744;SDS011;61387;48.112;8.616;2023-07-29T09:02:53;5.87;;;3.40;;
27744;SDS011;61387;48.112;8.616;2023-07-29T09:05:23;5.55;;;3.50;;
27744;SDS011;61387;48.112;8.616;2023-07-29T09:07:49;4.70;;;2.72;;
27744;SDS011;61387;48.112;8.616;2023-07-29T09:10:20;3.85;;;2.80;;
27744;SDS011;61387;48.112;8.616;2023-07-29T09:12:47;5.97;;;3.20;;
27744;SDS011;61387;48.112;8.616;2023-07-29T09:15:13;5.57;;;3.20;;
27744;SDS011;61387;48.112;8.616;2023-07-29T09:17:55;4.25;;;2.87;;
27744;SDS011;61387;48.112;8.616;2023-07-29T09:20:28;3.55;;;2.83;;
27744;SDS011;61387;48.112;8.616;2023-07-29T09:22:54;3.83;;;2.78;;
27744;SDS011;61387;48.112;8.616;2023-07-29T09:25:26;3.83;;;2.78;;
27744;SDS011;61387;48.112;8.616;2023-07-29T09:27:52;4.65;;;3.00;;
27744;SDS011;61387;48.112;8.616;2023-07-29T09:30:23;4.72;;;3.30;;
27744;SDS011;61387;48.112;8.616;2023-07-29T09:32:52;4.57;;;2.63;;
27744;SDS011;61387;48.112;8.616;2023-07-29T09:35:23;5.22;;;3.03;;
27744;SDS011;61387;48.112;8.616;2023-07-29T09:37:50;4.20;;;2.70;;
27744;SDS011;61387;48.112;8.616;2023-07-29T09:40:16;4.45;;;2.92;;
27744;SDS011;61387;48.112;8.616;2023-07-29T09:42:58;3.72;;;2.65;;
27744;SDS011;61387;48.112;8.616;2023-07-29T09:45:34;3.45;;;2.60;;
27744;SDS011;61387;48.112;8.616;2023-07-29T09:48:01;3.33;;;2.62;;
27744;SDS011;61387;48.112;8.616;2023-07-29T09:50:36;3.85;;;2.60;;
27744;SDS011;61387;48.112;8.616;2023-07-29T09:53:02;4.68;;;3.08;;
27744;SDS011;61387;48.112;8.616;2023-07-29T09:55:29;4.43;;;2.53;;
27744;SDS011;61387;48.112;8.616;2023-07-29T09:57:59;3.60;;;2.83;;
27744;SDS011;61387;48.112;8.616;2023-07-29T10:00:32;4.28;;;2.95;;
27744;SDS011;61387;48.112;8.616;2023-07-29T10:02:58;4.75;;;2.90;;
27744;SDS011;61387;48.112;8.616;2023-07-29T10:05:27;4.95;;;2.75;;
27744;SDS011;61387;48.112;8.616;2023-07-29T10:07:54;3.47;;;2.47;;
27744;SDS011;61387;48.112;8.616;2023-07-29T10:10:25;3.28;;;2.60;;
27744;SDS011;61387;48.112;8.616;2023-07-29T10:12:52;5.93;;;2.85;;
27744;SDS011;61387;48.112;8.616;2023-07-29T10:15:19;5.40;;;2.90;;
27744;SDS011;61387;48.112;8.616;2023-07-29T10:17:46;5.07;;;2.60;;
27744;SDS011;61387;48.112;8.616;2023-07-29T10:20:12;3.22;;;2.55;;
27744;SDS011;61387;48.112;8.616;2023-07-29T10:22:38;4.33;;;2.80;;
27744;SDS011;61387;48.112;8.616;2023-07-29T10:25:29;3.90;;;2.58;;
27744;SDS011;61387;48.112;8.616;2023-07-29T10:28:04;4.28;;;2.80;;
27744;SDS011;61387;48.112;8.616;2023-07-29T10:30:31;3.05;;;2.42;;
27744;SDS011;61387;48.112;8.616;2023-07-29T10:33:04;3.83;;;2.50;;
27744;SDS011;61387;48.112;8.616;2023-07-29T10:35:32;4.40;;;2.60;;
27744;SDS011;61387;48.112;8.616;2023-07-29T10:37:59;3.00;;;2.40;;
27744;SDS011;61387;48.112;8.616;2023-07-29T10:40:26;3.95;;;2.80;;
27744;SDS011;61387;48.112;8.616;2023-07-29T10:46:21;3.45;;;2.50;;
27744;SDS011;61387;48.112;8.616;2023-07-29T10:51:21;2.97;;;2.35;;
27744;SDS011;61387;48.112;8.616;2023-07-29T10:56:50;2.55;;;2.15;;
27744;SDS011;61387;48.112;8.616;2023-07-29T11:02:17;3.25;;;2.33;;
27744;SDS011;61387;48.112;8.616;2023-07-29T11:04:47;3.15;;;2.33;;
27744;SDS011;61387;48.112;8.616;2023-07-29T11:07:23;3.00;;;2.33;;
27744;SDS011;61387;48.112;8.616;2023-07-29T11:09:57;3.28;;;2.42;;
27744;SDS011;61387;48.112;8.616;2023-07-29T11:15:02;4.35;;;2.28;;
27744;SDS011;61387;48.112;8.616;2023-07-29T11:17:34;3.60;;;2.17;;
27744;SDS011;61387;48.112;8.616;2023-07-29T11:20:00;4.80;;;2.12;;
27744;SDS011;61387;48.112;8.616;2023-07-29T11:22:28;4.80;;;2.37;;
27744;SDS011;61387;48.112;8.616;2023-07-29T11:24:54;2.93;;;2.23;;
27744;SDS011;61387;48.112;8.616;2023-07-29T11:27:20;2.83;;;2.10;;
27744;SDS011;61387;48.112;8.616;2023-07-29T11:29:46;2.65;;;2.30;;
27744;SDS011;61387;48.112;8.616;2023-07-29T11:32:12;2.72;;;1.83;;
27744;SDS011;61387;48.112;8.616;2023-07-29T11:34:38;2.17;;;1.95;;
27744;SDS011;61387;48.112;8.616;2023-07-29T11:37:08;2.80;;;2.25;;
27744;SDS011;61387;48.112;8.616;2023-07-29T11:39:39;4.78;;;2.22;;
27744;SDS011;61387;48.112;8.616;2023-07-29T11:42:12;2.42;;;2.17;;
27744;SDS011;61387;48.112;8.616;2023-07-29T11:44:41;3.00;;;2.00;;
27744;SDS011;61387;48.112;8.616;2023-07-29T11:47:08;2.62;;;1.83;;
27744;SDS011;61387;48.112;8.616;2023-07-29T11:49:34;2.33;;;1.95;;
27744;SDS011;61387;48.112;8.616;2023-07-29T11:52:01;3.92;;;2.33;;
27744;SDS011;61387;48.112;8.616;2023-07-29T11:54:36;4.18;;;2.47;;
27744;SDS011;61387;48.112;8.616;2023-07-29T11:57:11;4.50;;;2.33;;
27744;SDS011;61387;48.112;8.616;2023-07-29T11:59:38;4.25;;;2.50;;
27744;SDS011;61387;48.112;8.616;2023-07-29T12:02:05;3.78;;;2.03;;
27744;SDS011;61387;48.112;8.616;2023-07-29T12:04:36;3.80;;;2.60;;
27744;SDS011;61387;48.112;8.616;2023-07-29T12:07:02;4.37;;;2.30;;
27744;SDS011;61387;48.112;8.616;2023-07-29T12:09:31;3.75;;;2.42;;
27744;SDS011;61387;48.112;8.616;2023-07-29T12:12:04;3.37;;;2.35;;
27744;SDS011;61387;48.112;8.616;2023-07-29T12:14:30;3.80;;;2.10;;
27744;SDS011;61387;48.112;8.616;2023-07-29T12:16:56;3.95;;;2.42;;
27744;SDS011;61387;48.112;8.616;2023-07-29T12:19:30;2.83;;;2.30;;
27744;SDS011;61387;48.112;8.616;2023-07-29T12:21:56;5.15;;;2.55;;
27744;SDS011;61387;48.112;8.616;2023-07-29T12:24:22;3.57;;;2.20;;
27744;SDS011;61387;48.112;8.616;2023-07-29T12:26:48;2.90;;;2.30;;
27744;SDS011;61387;48.112;8.616;2023-07-29T12:29:15;2.73;;;2.30;;
27744;SDS011;61387;48.112;8.616;2023-07-29T12:31:42;2.65;;;2.37;;
27744;SDS011;61387;48.112;8.616;2023-07-29T12:34:08;2.85;;;2.25;;
27744;SDS011;61387;48.112;8.616;2023-07-29T12:36:44;2.85;;;2.10;;
27744;SDS011;61387;48.112;8.616;2023-07-29T12:39:20;2.72;;;2.30;;
27744;SDS011;61387;48.112;8.616;2023-07-29T12:41:48;3.37;;;2.30;;
27744;SDS011;61387;48.112;8.616;2023-07-29T12:44:14;4.00;;;2.40;;
27744;SDS011;61387;48.112;8.616;2023-07-29T12:46:40;4.40;;;2.67;;
27744;SDS011;61387;48.112;8.616;2023-07-29T12:49:06;2.70;;;2.17;;
27744;SDS011;61387;48.112;8.616;2023-07-29T12:51:32;4.27;;;2.60;;
27744;SDS011;61387;48.112;8.616;2023-07-29T12:54:00;2.92;;;2.28;;
27744;SDS011;61387;48.112;8.616;2023-07-29T12:56:27;4.43;;;2.33;;
27744;SDS011;61387;48.112;8.616;2023-07-29T12:58:53;4.23;;;2.50;;
27744;SDS011;61387;48.112;8.616;2023-07-29T13:01:25;2.83;;;2.30;;
27744;SDS011;61387;48.112;8.616;2023-07-29T13:03:53;3.17;;;2.22;;
27744;SDS011;61387;48.112;8.616;2023-07-29T13:06:21;3.78;;;2.65;;
27744;SDS011;61387;48.112;8.616;2023-07-29T13:08:47;3.97;;;2.30;;
27744;SDS011;61387;48.112;8.616;2023-07-29T13:11:13;3.03;;;2.12;;
27744;SDS011;61387;48.112;8.616;2023-07-29T13:13:39;5.30;;;2.80;;
27744;SDS011;61387;48.112;8.616;2023-07-29T13:16:04;2.83;;;2.50;;
27744;SDS011;61387;48.112;8.616;2023-07-29T13:18:31;3.85;;;2.22;;
27744;SDS011;61387;48.112;8.616;2023-07-29T13:20:57;4.65;;;2.67;;
27744;SDS011;61387;48.112;8.616;2023-07-29T13:23:23;2.80;;;2.07;;
27744;SDS011;61387;48.112;8.616;2023-07-29T13:25:49;2.58;;;2.17;;
27744;SDS011;61387;48.112;8.616;2023-07-29T13:28:23;3.22;;;2.20;;
27744;SDS011;61387;48.112;8.616;2023-07-29T13:30:48;4.68;;;2.95;;
27744;SDS011;61387;48.112;8.616;2023-07-29T13:33:14;3.07;;;2.37;;
27744;SDS011;61387;48.112;8.616;2023-07-29T13:35:40;5.77;;;3.73;;
27744;SDS011;61387;48.112;8.616;2023-07-29T13:38:06;3.80;;;2.80;;
27744;SDS011;61387;48.112;8.616;2023-07-29T13:40:32;4.10;;;2.80;;
27744;SDS011;61387;48.112;8.616;2023-07-29T13:42:58;2.70;;;2.00;;
27744;SDS011;61387;48.112;8.616;2023-07-29T13:45:23;4.00;;;2.40;;
27744;SDS011;61387;48.112;8.616;2023-07-29T13:47:49;3.17;;;2.28;;
27744;SDS011;61387;48.112;8.616;2023-07-29T13:50:15;3.53;;;2.30;;
27744;SDS011;61387;48.112;8.616;2023-07-29T13:52:41;2.58;;;2.20;;
27744;SDS011;61387;48.112;8.616;2023-07-29T13:55:08;2.37;;;2.10;;
27744;SDS011;61387;48.112;8.616;2023-07-29T13:57:35;2.37;;;2.17;;
27744;SDS011;61387;48.112;8.616;2023-07-29T14:00:01;4.10;;;2.50;;
27744;SDS011;61387;48.112;8.616;2023-07-29T14:02:27;3.17;;;2.20;;
27744;SDS011;61387;48.112;8.616;2023-07-29T14:04:55;2.85;;;2.20;;
27744;SDS011;61387;48.112;8.616;2023-07-29T14:07:21;2.73;;;1.90;;
27744;SDS011;61387;48.112;8.616;2023-07-29T14:10:05;2.50;;;2.13;;
27744;SDS011;61387;48.112;8.616;2023-07-29T14:12:31;3.17;;;2.12;;
27744;SDS011;61387;48.112;8.616;2023-07-29T14:14:57;4.97;;;2.37;;
27744;SDS011;61387;48.112;8.616;2023-07-29T14:17:22;3.57;;;2.23;;
27744;SDS011;61387;48.112;8.616;2023-07-29T14:19:48;2.78;;;2.17;;
27744;SDS011;61387;48.112;8.616;2023-07-29T14:22:14;3.40;;;2.30;;
27744;SDS011;61387;48.112;8.616;2023-07-29T14:24:40;5.10;;;3.17;;
27744;SDS011;61387;48.112;8.616;2023-07-29T14:27:06;4.07;;;2.87;;
27744;SDS011;61387;48.112;8.616;2023-07-29T14:29:32;3.80;;;2.80;;
27744;SDS011;61387;48.112;8.616;2023-07-29T14:31:58;6.37;;;2.73;;
27744;SDS011;61387;48.112;8.616;2023-07-29T14:34:24;5.17;;;3.03;;
27744;SDS011;61387;48.112;8.616;2023-07-29T14:36:50;4.13;;;2.70;;
27744;SDS011;61387;48.112;8.616;2023-07-29T14:39:15;3.93;;;2.57;;
27744;SDS011;61387;48.112;8.616;2023-07-29T14:41:41;4.40;;;2.50;;
27744;SDS011;61387;48.112;8.616;2023-07-29T14:44:07;8.17;;;5.03;;
27744;SDS011;61387;48.112;8.616;2023-07-29T14:46:33;4.53;;;2.40;;
27744;SDS011;61387;48.112;8.616;2023-07-29T14:48:59;6.17;;;4.00;;
27744;SDS011;61387;48.112;8.616;2023-07-29T14:51:25;4.28;;;2.97;;
27744;SDS011;61387;48.112;8.616;2023-07-29T14:53:51;4.57;;;2.70;;
27744;SDS011;61387;48.112;8.616;2023-07-29T14:56:17;3.63;;;2.50;;
27744;SDS011;61387;48.112;8.616;2023-07-29T14:58:44;2.95;;;2.33;;
27744;SDS011;61387;48.112;8.616;2023-07-29T15:01:10;4.05;;;2.30;;
27744;SDS011;61387;48.112;8.616;2023-07-29T15:03:35;3.10;;;2.30;;
27744;SDS011;61387;48.112;8.616;2023-07-29T15:06:01;3.10;;;2.37;;
27744;SDS011;61387;48.112;8.616;2023-07-29T15:08:28;3.20;;;2.50;;
27744;SDS011;61387;48.112;8.616;2023-07-29T15:10:53;3.17;;;2.40;;